Time,TemperatureF,DewpointF,PressureIn,WindDirection,WindDirectionDegrees,WindSpeedMPH,WindSpeedGustMPH,Humidity,HourlyPrecipIn,Conditions,Clouds,dailyrainin,SoftwareType,DateUTC
2013-04-25 00:02:00,45.0,32.0,29.99,SW,231,2.0,8.0,61,0.00,,,0.00,,2013-04-25 05:02:00,
2013-04-25 00:12:00,45.0,32.0,29.99,SW,231,2.0,8.0,61,0.00,,,0.00,,2013-04-25 05:12:00,
2013-04-25 00:21:00,46.0,33.0,30.00,SW,227,4.0,10.0,61,0.00,,,0.00,,2013-04-25 05:21:00,
2013-04-25 00:32:00,46.0,33.0,29.99,SW,234,5.0,11.0,60,0.00,,,0.00,,2013-04-25 05:32:00,
2013-04-25 00:42:00,46.0,33.0,29.99,SW,234,5.0,11.0,60,0.00,,,0.00,,2013-04-25 05:42:00,
2013-04-25 00:51:00,46.0,33.0,29.99,SW,230,3.0,9.0,61,0.00,,,0.00,,2013-04-25 05:51:00,
2013-04-25 01:02:00,45.0,33.0,29.99,WSW,240,3.0,9.0,62,0.00,,,0.00,,2013-04-25 06:02:00,
2013-04-25 01:11:00,45.0,33.0,29.99,WSW,240,3.0,9.0,62,0.00,,,0.00,,2013-04-25 06:11:00,
2013-04-25 01:22:00,45.0,33.0,29.99,SW,236,2.0,9.0,63,0.00,,,0.00,,2013-04-25 06:22:00,
2013-04-25 01:31:00,45.0,34.0,29.97,WSW,242,4.0,14.0,64,0.00,,,0.00,,2013-04-25 06:31:00,
2013-04-25 01:42:00,45.0,34.0,29.97,WSW,242,4.0,14.0,64,0.00,,,0.00,,2013-04-25 06:42:00,
2013-04-25 01:52:00,45.0,34.0,29.97,WSW,245,5.0,18.0,64,0.00,,,0.00,,2013-04-25 06:52:00,
2013-04-25 02:02:00,45.0,35.0,29.97,WSW,251,6.0,20.0,68,0.00,,,0.00,,2013-04-25 07:02:00,
2013-04-25 02:12:00,44.0,34.0,29.97,WSW,247,4.0,12.0,69,0.00,,,0.00,,2013-04-25 07:12:00,
2013-04-25 02:22:00,44.0,34.0,29.97,WSW,247,4.0,12.0,69,0.00,,,0.00,,2013-04-25 07:22:00,
2013-04-25 02:31:00,44.0,35.0,29.96,WSW,244,5.0,12.0,70,0.00,,,0.00,,2013-04-25 07:31:00,
2013-04-25 02:42:00,44.0,35.0,29.96,WSW,244,5.0,12.0,70,0.00,,,0.00,,2013-04-25 07:42:00,
2013-04-25 02:52:00,43.0,34.0,29.96,SW,236,5.0,12.0,70,0.00,,,0.00,,2013-04-25 07:52:00,
2013-04-25 03:01:00,43.0,34.0,29.96,WSW,247,3.0,13.0,70,0.00,,,0.00,,2013-04-25 08:01:00,
2013-04-25 03:11:00,43.0,34.0,29.96,WSW,247,3.0,13.0,70,0.00,,,0.00,,2013-04-25 08:11:00,
2013-04-25 03:21:00,42.0,33.0,29.96,WSW,254,5.0,12.0,70,0.00,,,0.00,,2013-04-25 08:21:00,
2013-04-25 03:31:00,42.0,33.0,29.96,WSW,254,5.0,12.0,70,0.00,,,0.00,,2013-04-25 08:31:00,
2013-04-25 03:42:00,42.0,33.0,29.96,WSW,254,5.0,12.0,70,0.00,,,0.00,,2013-04-25 08:42:00,
2013-04-25 03:51:00,41.0,32.0,29.96,West,263,2.0,10.0,69,0.00,,,0.00,,2013-04-25 08:51:00,
2013-04-25 04:01:00,41.0,32.0,29.97,WSW,254,3.0,9.0,69,0.00,,,0.00,,2013-04-25 09:01:00,
2013-04-25 04:11:00,41.0,32.0,29.97,WSW,254,3.0,9.0,69,0.00,,,0.00,,2013-04-25 09:11:00,
2013-04-25 04:21:00,41.0,32.0,29.98,West,266,9.0,22.0,69,0.01,,,0.01,,2013-04-25 09:21:00,
2013-04-25 04:33:00,38.0,29.0,29.98,SW,228,2.0,9.0,69,0.03,,,0.03,,2013-04-25 09:33:00,
2013-04-25 04:42:00,38.0,29.0,29.98,SW,228,2.0,9.0,69,0.03,,,0.03,,2013-04-25 09:42:00,
2013-04-25 04:52:00,38.0,29.0,29.98,WSW,258,4.0,10.0,70,0.03,,,0.03,,2013-04-25 09:52:00,
2013-04-25 05:02:00,38.0,29.0,29.99,West,260,1.0,9.0,70,0.03,,,0.03,,2013-04-25 10:02:00,
2013-04-25 05:12:00,38.0,29.0,29.99,West,260,1.0,9.0,70,0.03,,,0.03,,2013-04-25 10:12:00,
2013-04-25 05:22:00,38.0,29.0,30.00,North,0,0.0,7.0,70,0.02,,,0.03,,2013-04-25 10:22:00,
2013-04-25 05:32:00,39.0,30.0,30.01,West,279,4.0,7.0,70,0.00,,,0.03,,2013-04-25 10:32:00,
2013-04-25 05:42:00,39.0,30.0,30.01,West,279,4.0,7.0,70,0.00,,,0.03,,2013-04-25 10:42:00,
2013-04-25 05:52:00,39.0,30.0,30.01,North,0,0.0,9.0,69,0.00,,,0.03,,2013-04-25 10:52:00,
2013-04-25 06:02:00,38.0,29.0,30.01,North,0,0.0,5.0,69,0.00,,,0.03,,2013-04-25 11:02:00,
2013-04-25 06:12:00,38.0,29.0,30.01,North,0,0.0,5.0,69,0.00,,,0.03,,2013-04-25 11:12:00,
2013-04-25 06:22:00,39.0,30.0,30.02,North,0,0.0,5.0,69,0.00,,,0.03,,2013-04-25 11:22:00,
2013-04-25 06:32:00,38.0,29.0,30.02,North,0,0.0,4.0,69,0.00,,,0.03,,2013-04-25 11:32:00,
2013-04-25 06:42:00,38.0,29.0,30.02,North,0,0.0,4.0,69,0.00,,,0.03,,2013-04-25 11:42:00,
2013-04-25 06:51:00,38.0,29.0,30.03,North,0,0.0,4.0,69,0.00,,,0.03,,2013-04-25 11:51:00,
2013-04-25 07:01:00,38.0,29.0,30.04,West,273,4.0,12.0,69,0.01,,,0.04,,2013-04-25 12:01:00,
2013-04-25 07:12:00,38.0,29.0,30.04,West,273,4.0,12.0,69,0.01,,,0.04,,2013-04-25 12:12:00,
2013-04-25 07:21:00,39.0,30.0,30.05,North,0,0.0,9.0,69,0.01,,,0.04,,2013-04-25 12:21:00,
2013-04-25 07:32:00,38.0,29.0,30.06,WSW,258,2.0,9.0,70,0.02,,,0.05,,2013-04-25 12:32:00,
2013-04-25 07:42:00,38.0,29.0,30.06,WSW,258,2.0,9.0,70,0.02,,,0.05,,2013-04-25 12:42:00,
2013-04-25 07:51:00,38.0,29.0,30.07,West,264,2.0,8.0,71,0.03,,,0.06,,2013-04-25 12:51:00,
2013-04-25 08:02:00,39.0,30.0,30.07,West,260,2.0,10.0,71,0.02,,,0.06,,2013-04-25 13:02:00,
2013-04-25 08:11:00,39.0,30.0,30.07,West,260,2.0,10.0,71,0.02,,,0.06,,2013-04-25 13:11:00,
2013-04-25 08:21:00,39.0,30.0,30.08,WSW,245,1.0,8.0,70,0.02,,,0.06,,2013-04-25 13:21:00,
2013-04-25 08:32:00,40.0,31.0,30.09,West,280,3.0,10.0,69,0.01,,,0.06,,2013-04-25 13:32:00,
2013-04-25 08:42:00,40.0,31.0,30.09,West,280,3.0,10.0,69,0.01,,,0.06,,2013-04-25 13:42:00,
2013-04-25 08:52:00,40.0,31.0,30.09,West,271,6.0,14.0,69,0.00,,,0.06,,2013-04-25 13:52:00,
2013-04-25 09:02:00,41.0,32.0,30.10,WNW,287,6.0,13.0,69,0.00,,,0.06,,2013-04-25 14:02:00,
2013-04-25 09:11:00,41.0,32.0,30.10,WNW,287,6.0,13.0,69,0.00,,,0.06,,2013-04-25 14:11:00,
2013-04-25 09:21:00,41.0,31.0,30.11,West,266,5.0,11.0,68,0.00,,,0.06,,2013-04-25 14:21:00,
2013-04-25 09:32:00,41.0,31.0,30.11,WSW,257,4.0,11.0,68,0.00,,,0.06,,2013-04-25 14:32:00,
2013-04-25 09:42:00,41.0,31.0,30.11,WSW,257,4.0,11.0,68,0.00,,,0.06,,2013-04-25 14:42:00,
2013-04-25 09:52:00,43.0,34.0,30.12,WNW,286,9.0,19.0,69,0.00,,,0.06,,2013-04-25 14:52:00,
2013-04-25 10:02:00,43.0,33.0,30.13,West,280,4.0,14.0,68,0.00,,,0.06,,2013-04-25 15:02:00,
2013-04-25 10:11:00,43.0,33.0,30.13,West,280,4.0,14.0,68,0.00,,,0.06,,2013-04-25 15:11:00,
2013-04-25 10:21:00,43.0,33.0,30.14,West,267,7.0,13.0,68,0.00,,,0.06,,2013-04-25 15:21:00,
2013-04-25 10:33:00,43.0,34.0,30.14,WNW,286,6.0,13.0,69,0.00,,,0.06,,2013-04-25 15:33:00,
2013-04-25 10:42:00,43.0,34.0,30.14,WNW,286,6.0,13.0,69,0.00,,,0.06,,2013-04-25 15:42:00,
2013-04-25 10:53:00,45.0,35.0,30.15,West,278,7.0,19.0,68,0.00,,,0.06,,2013-04-25 15:53:00,
2013-04-25 11:02:00,45.0,35.0,30.15,WNW,283,5.0,16.0,67,0.00,,,0.06,,2013-04-25 16:02:00,
2013-04-25 11:13:00,45.0,35.0,30.15,WNW,283,5.0,16.0,67,0.00,,,0.06,,2013-04-25 16:13:00,
2013-04-25 11:24:00,45.0,35.0,30.16,West,270,5.0,12.0,68,0.00,,,0.06,,2013-04-25 16:24:00,
2013-04-25 11:32:00,46.0,35.0,30.16,WNW,285,5.0,12.0,65,0.00,,,0.06,,2013-04-25 16:32:00,
2013-04-25 11:42:00,46.0,35.0,30.16,WNW,285,5.0,12.0,65,0.00,,,0.06,,2013-04-25 16:42:00,
2013-04-25 11:52:00,46.0,33.0,30.17,West,279,4.0,14.0,60,0.00,,,0.06,,2013-04-25 16:52:00,
2013-04-25 12:02:00,47.0,35.0,30.17,West,271,5.0,16.0,62,0.00,,,0.06,,2013-04-25 17:02:00,
2013-04-25 12:11:00,47.0,35.0,30.17,West,271,5.0,16.0,62,0.00,,,0.06,,2013-04-25 17:11:00,
2013-04-25 12:22:00,47.0,35.0,30.17,West,270,3.0,14.0,64,0.00,,,0.06,,2013-04-25 17:22:00,
2013-04-25 12:32:00,47.0,34.0,30.18,West,279,6.0,15.0,60,0.00,,,0.06,,2013-04-25 17:32:00,
2013-04-25 12:42:00,47.0,34.0,30.18,West,279,6.0,15.0,60,0.00,,,0.06,,2013-04-25 17:42:00,
2013-04-25 12:53:00,47.0,34.0,30.19,WNW,288,5.0,10.0,60,0.00,,,0.06,,2013-04-25 17:53:00,
2013-04-25 13:01:00,47.0,33.0,30.19,West,276,6.0,12.0,58,0.00,,,0.06,,2013-04-25 18:01:00,
2013-04-25 13:11:00,47.0,33.0,30.19,West,276,6.0,12.0,58,0.00,,,0.06,,2013-04-25 18:11:00,
2013-04-25 13:21:00,50.0,34.0,30.19,West,275,6.0,13.0,55,0.00,,,0.06,,2013-04-25 18:21:00,
2013-04-25 13:32:00,50.0,34.0,30.19,West,275,6.0,13.0,55,0.00,,,0.06,,2013-04-25 18:32:00,
2013-04-25 13:42:00,50.0,34.0,30.19,West,275,6.0,13.0,55,0.00,,,0.06,,2013-04-25 18:42:00,
2013-04-25 13:52:00,49.0,34.0,30.20,West,273,1.0,12.0,57,0.00,,,0.06,,2013-04-25 18:52:00,
2013-04-25 14:01:00,49.0,34.0,30.20,West,273,1.0,12.0,57,0.00,,,0.06,,2013-04-25 19:01:00,
2013-04-25 14:12:00,49.0,34.0,30.20,West,273,1.0,12.0,57,0.00,,,0.06,,2013-04-25 19:12:00,
2013-04-25 14:21:00,50.0,34.0,30.21,West,271,4.0,11.0,53,0.00,,,0.06,,2013-04-25 19:21:00,
2013-04-25 14:31:00,51.0,33.0,30.21,West,274,6.0,14.0,49,0.00,,,0.06,,2013-04-25 19:31:00,
2013-04-25 14:42:00,51.0,33.0,30.21,West,274,6.0,14.0,49,0.00,,,0.06,,2013-04-25 19:42:00,
2013-04-25 14:52:00,50.0,34.0,30.22,WSW,247,2.0,11.0,53,0.00,,,0.06,,2013-04-25 19:52:00,
2013-04-25 15:02:00,51.0,34.0,30.22,WNW,298,4.0,18.0,51,0.00,,,0.06,,2013-04-25 20:02:00,
2013-04-25 15:11:00,51.0,34.0,30.22,WNW,298,4.0,18.0,51,0.00,,,0.06,,2013-04-25 20:11:00,
2013-04-25 15:22:00,51.0,35.0,30.22,WSW,255,2.0,11.0,55,0.00,,,0.06,,2013-04-25 20:22:00,
2013-04-25 15:32:00,52.0,33.0,30.22,WNW,293,5.0,16.0,48,0.00,,,0.06,,2013-04-25 20:32:00,
2013-04-25 15:42:00,52.0,33.0,30.22,WNW,293,5.0,16.0,48,0.00,,,0.06,,2013-04-25 20:42:00,
2013-04-25 15:52:00,50.0,33.0,30.22,West,265,2.0,11.0,51,0.00,,,0.06,,2013-04-25 20:52:00,
2013-04-25 16:01:00,51.0,33.0,30.22,West,273,6.0,15.0,50,0.00,,,0.06,,2013-04-25 21:01:00,
2013-04-25 16:11:00,51.0,33.0,30.22,West,273,6.0,15.0,50,0.00,,,0.06,,2013-04-25 21:11:00,
2013-04-25 16:21:00,51.0,34.0,30.22,West,261,2.0,15.0,53,0.00,,,0.06,,2013-04-25 21:21:00,
2013-04-25 16:33:00,52.0,34.0,30.22,WSW,258,3.0,10.0,50,0.00,,,0.06,,2013-04-25 21:33:00,
2013-04-25 16:42:00,52.0,34.0,30.22,WSW,258,3.0,10.0,50,0.00,,,0.06,,2013-04-25 21:42:00,
2013-04-25 16:52:00,52.0,33.0,30.22,North,0,0.0,14.0,49,0.00,,,0.06,,2013-04-25 21:52:00,
2013-04-25 17:02:00,52.0,33.0,30.23,WSW,250,1.0,13.0,48,0.00,,,0.06,,2013-04-25 22:02:00,
2013-04-25 17:12:00,52.0,33.0,30.23,WSW,250,1.0,13.0,48,0.00,,,0.06,,2013-04-25 22:12:00,
2013-04-25 17:22:00,52.0,33.0,30.22,WSW,253,2.0,10.0,49,0.00,,,0.06,,2013-04-25 22:22:00,
2013-04-25 17:33:00,52.0,33.0,30.22,WSW,253,2.0,10.0,49,0.00,,,0.06,,2013-04-25 22:33:00,
2013-04-25 17:42:00,52.0,33.0,30.22,WSW,253,2.0,10.0,49,0.00,,,0.06,,2013-04-25 22:42:00,
2013-04-25 17:52:00,51.0,33.0,30.23,West,260,1.0,12.0,49,0.00,,,0.06,,2013-04-25 22:52:00,
2013-04-25 18:02:00,51.0,33.0,30.23,North,0,0.0,7.0,50,0.00,,,0.06,,2013-04-25 23:02:00,
2013-04-25 18:12:00,51.0,33.0,30.23,North,0,0.0,7.0,50,0.00,,,0.06,,2013-04-25 23:12:00,
2013-04-25 18:22:00,51.0,32.0,30.23,North,0,0.0,6.0,48,0.00,,,0.06,,2013-04-25 23:22:00,
2013-04-25 18:32:00,52.0,32.0,30.23,WSW,256,2.0,11.0,46,0.00,,,0.06,,2013-04-25 23:32:00,
2013-04-25 18:42:00,52.0,32.0,30.23,WSW,256,2.0,11.0,46,0.00,,,0.06,,2013-04-25 23:42:00,
2013-04-25 18:52:00,52.0,32.0,30.23,WSW,256,2.0,11.0,46,0.00,,,0.06,,2013-04-25 23:52:00,
2013-04-25 19:01:00,51.0,32.0,30.23,West,259,1.0,10.0,48,0.00,,,0.06,,2013-04-26 00:01:00,
2013-04-25 19:11:00,51.0,32.0,30.23,West,259,1.0,10.0,48,0.00,,,0.06,,2013-04-26 00:11:00,
2013-04-25 19:21:00,51.0,33.0,30.23,West,264,1.0,6.0,49,0.00,,,0.06,,2013-04-26 00:21:00,
2013-04-25 19:32:00,51.0,33.0,30.23,North,0,0.0,7.0,50,0.00,,,0.06,,2013-04-26 00:32:00,
2013-04-25 19:41:00,51.0,33.0,30.23,North,0,0.0,7.0,50,0.00,,,0.06,,2013-04-26 00:41:00,
2013-04-25 19:51:00,50.0,33.0,30.23,North,0,0.0,5.0,52,0.00,,,0.06,,2013-04-26 00:51:00,
2013-04-25 20:01:00,50.0,33.0,30.23,North,0,0.0,5.0,52,0.00,,,0.06,,2013-04-26 01:01:00,
2013-04-25 20:11:00,50.0,33.0,30.23,North,0,0.0,5.0,52,0.00,,,0.06,,2013-04-26 01:11:00,
2013-04-25 20:21:00,48.0,33.0,30.23,North,0,0.0,1.0,55,0.00,,,0.06,,2013-04-26 01:21:00,
2013-04-25 20:31:00,47.0,32.0,30.23,North,0,0.0,2.0,55,0.00,,,0.06,,2013-04-26 01:31:00,
2013-04-25 20:42:00,47.0,32.0,30.23,North,0,0.0,2.0,55,0.00,,,0.06,,2013-04-26 01:42:00,
2013-04-25 20:52:00,46.0,32.0,30.23,North,0,0.0,0.0,57,0.00,,,0.06,,2013-04-26 01:52:00,
2013-04-25 21:02:00,45.0,32.0,30.24,North,0,0.0,0.0,60,0.00,,,0.06,,2013-04-26 02:02:00,
2013-04-25 21:11:00,45.0,32.0,30.24,North,0,0.0,0.0,60,0.00,,,0.06,,2013-04-26 02:11:00,
2013-04-25 21:21:00,44.0,31.0,30.24,North,0,0.0,0.0,61,0.00,,,0.06,,2013-04-26 02:21:00,
2013-04-25 21:32:00,44.0,32.0,30.25,North,0,0.0,2.0,63,0.00,,,0.06,,2013-04-26 02:32:00,
2013-04-25 21:42:00,44.0,32.0,30.25,North,0,0.0,2.0,63,0.00,,,0.06,,2013-04-26 02:42:00,
2013-04-25 21:51:00,44.0,32.0,30.25,North,0,0.0,2.0,63,0.00,,,0.06,,2013-04-26 02:51:00,
2013-04-25 22:01:00,42.0,31.0,30.27,North,0,0.0,0.0,66,0.00,,,0.06,,2013-04-26 03:01:00,
2013-04-25 22:11:00,42.0,31.0,30.27,North,0,0.0,0.0,66,0.00,,,0.06,,2013-04-26 03:11:00,
2013-04-25 22:21:00,41.0,31.0,30.27,North,0,0.0,0.0,68,0.00,,,0.06,,2013-04-26 03:21:00,
2013-04-25 22:33:00,41.0,32.0,30.27,North,0,0.0,0.0,69,0.00,,,0.06,,2013-04-26 03:33:00,
2013-04-25 22:43:00,41.0,32.0,30.27,North,0,0.0,0.0,69,0.00,,,0.06,,2013-04-26 03:43:00,
2013-04-25 22:53:00,40.0,31.0,30.27,North,0,0.0,0.0,69,0.00,,,0.06,,2013-04-26 03:53:00,
2013-04-25 23:02:00,40.0,31.0,30.28,North,0,0.0,0.0,70,0.00,,,0.06,,2013-04-26 04:02:00,
2013-04-25 23:12:00,40.0,31.0,30.28,North,0,0.0,0.0,70,0.00,,,0.06,,2013-04-26 04:12:00,
2013-04-25 23:22:00,39.0,30.0,30.28,North,0,0.0,0.0,71,0.00,,,0.06,,2013-04-26 04:22:00,
2013-04-25 23:32:00,39.0,30.0,30.29,North,0,0.0,0.0,71,0.00,,,0.06,,2013-04-26 04:32:00,
2013-04-25 23:43:00,39.0,30.0,30.29,North,0,0.0,0.0,71,0.00,,,0.06,,2013-04-26 04:43:00,
2013-04-25 23:52:00,38.0,29.0,30.28,North,0,0.0,0.0,71,0.00,,,0.06,,2013-04-26 04:52:00,